Time;durP1;ratioP1;P1;durP2;ratioP2;P2;SDS_P1;SDS_P2;PMS_P1;PMS_P2;Temp;Humidity;BMP_temperature;BMP_pressure;BME280_temperature;BME280_humidity;BME280_pressure;Samples;Min_cycle;Max_cycle;Signal;HPM_P1;HPM_P2
2022/03/15 00:00:41;;;;;;;35.53;21.08;;;;;;;3.62;100.00;101374.56;5024891;28;20037;-79
2022/03/15 00:03:07;;;;;;;37.25;21.85;;;;;;;3.51;100.00;101369.09;5024567;28;20036;-79
2022/03/15 00:05:32;;;;;;;36.08;21.30;;;;;;;3.48;100.00;101373.44;5023617;28;20049;-80
2022/03/15 00:07:58;;;;;;;34.30;21.27;;;;;;;3.44;100.00;101362.81;5020872;28;20426;-80
2022/03/15 00:10:24;;;;;;;35.72;20.58;;;;;;;3.42;100.00;101363.66;5003538;28;20545;-80
2022/03/15 00:12:50;;;;;;;37.90;21.67;;;;;;;3.41;100.00;101368.03;5022295;28;20061;-79
2022/03/15 00:15:15;;;;;;;37.33;22.75;;;;;;;3.42;100.00;101376.88;5004181;28;20558;-80
2022/03/15 00:17:43;;;;;;;36.75;22.27;;;;;;;3.42;100.00;101375.13;5004136;28;20061;-80
2022/03/15 00:20:11;;;;;;;35.33;22.23;;;;;;;3.42;100.00;101375.13;5004391;28;20095;-80
2022/03/15 00:22:37;;;;;;;36.70;20.65;;;;;;;3.37;100.00;101374.16;5005395;28;20107;-81
2022/03/15 00:25:08;;;;;;;38.03;21.33;;;;;;;3.31;100.00;101376.66;5023128;28;20051;-81
2022/03/15 00:27:34;;;;;;;38.08;20.55;;;;;;;3.29;100.00;101378.41;5022711;28;20073;-80
2022/03/15 00:30:00;;;;;;;37.17;22.25;;;;;;;3.27;100.00;101380.13;5022907;28;20029;-81
2022/03/15 00:32:26;;;;;;;36.60;21.67;;;;;;;3.25;100.00;101374.81;5022115;28;20034;-81
2022/03/15 00:34:51;;;;;;;34.17;20.63;;;;;;;3.21;100.00;101373.88;5005208;28;20026;-81
2022/03/15 00:37:17;;;;;;;38.60;20.90;;;;;;;3.15;100.00;101373.75;5004840;28;20018;-80
2022/03/15 00:39:43;;;;;;;36.85;21.95;;;;;;;3.13;100.00;101368.44;5005935;28;20034;-80
2022/03/15 00:42:09;;;;;;;44.13;23.65;;;;;;;3.18;100.00;101376.44;5005196;28;20042;-80
2022/03/15 00:44:35;;;;;;;40.90;24.30;;;;;;;3.21;100.00;101376.50;5022545;28;20029;-80
2022/03/15 00:47:00;;;;;;;42.22;24.20;;;;;;;3.17;100.00;101377.31;5004702;28;20122;-80
2022/03/15 00:49:26;;;;;;;41.03;23.77;;;;;;;3.12;100.00;101373.69;5021591;28;20105;-79
2022/03/15 00:51:51;;;;;;;46.97;24.75;;;;;;;3.07;100.00;101376.25;5022619;28;20030;-81
2022/03/15 00:54:17;;;;;;;38.17;23.45;;;;;;;3.06;100.00;101374.47;5021499;28;20029;-80
2022/03/15 00:56:43;;;;;;;38.15;22.95;;;;;;;3.03;100.00;101369.13;5022057;28;20419;-80
2022/03/15 00:59:09;;;;;;;38.00;22.77;;;;;;;3.01;100.00;101369.13;5019710;28;20136;-80
2022/03/15 01:01:35;;;;;;;40.40;23.48;;;;;;;3.00;100.00;101377.88;5021157;28;20049;-80
2022/03/15 01:04:00;;;;;;;39.50;23.63;;;;;;;2.99;100.00;101384.00;5021076;28;20042;-80
2022/03/15 01:06:26;;;;;;;44.22;24.63;;;;;;;3.00;100.00;101383.16;5002824;28;20022;-81
2022/03/15 01:08:51;;;;;;;42.00;24.02;;;;;;;2.99;100.00;101381.38;5021412;28;20037;-80
2022/03/15 01:11:16;;;;;;;40.17;23.85;;;;;;;2.99;100.00;101380.50;5021450;28;20034;-81
2022/03/15 01:13:42;;;;;;;41.42;22.85;;;;;;;2.96;100.00;101376.06;5021389;28;20086;-80
2022/03/15 01:16:07;;;;;;;39.80;23.27;;;;;;;2.98;100.00;101369.06;5021694;28;20014;-79
2022/03/15 01:18:33;;;;;;;40.53;22.55;;;;;;;2.96;100.00;101373.44;5021751;28;20475;-79
2022/03/15 01:20:58;;;;;;;43.65;23.65;;;;;;;2.94;100.00;101367.19;5021413;28;20048;-80
2022/03/15 01:23:24;;;;;;;40.08;23.27;;;;;;;2.92;100.00;101368.94;5021351;28;20077;-80
2022/03/15 01:25:49;;;;;;;47.45;25.90;;;;;;;2.98;100.00;101366.41;5019962;28;20029;-81
2022/03/15 01:28:15;;;;;;;45.88;25.33;;;;;;;2.96;100.00;101360.22;5003399;28;20112;-80
2022/03/15 01:30:40;;;;;;;49.05;25.67;;;;;;;3.05;100.00;101355.97;5021375;28;20109;-79
2022/03/15 01:33:05;;;;;;;46.38;25.55;;;;;;;3.05;100.00;101354.22;5004133;28;20021;-80
2022/03/15 01:35:31;;;;;;;50.88;26.10;;;;;;;3.06;100.00;101358.66;5003180;28;20022;-80
2022/03/15 01:37:56;;;;;;;53.35;26.92;;;;;;;3.03;100.00;101360.31;5020504;28;20061;-80
2022/03/15 01:40:22;;;;;;;48.60;26.02;;;;;;;3.03;100.00;101365.59;5021028;28;20032;-79
2022/03/15 01:42:47;;;;;;;51.13;26.42;;;;;;;2.94;100.00;101356.66;5021355;28;20026;-80
2022/03/15 01:45:12;;;;;;;49.65;26.55;;;;;;;2.95;100.00;101354.91;5020758;28;20025;-81
2022/03/15 01:47:39;;;;;;;51.50;25.67;;;;;;;2.97;100.00;101351.44;5021136;28;20029;-79
2022/03/15 01:50:05;;;;;;;50.78;26.30;;;;;;;2.97;100.00;101351.44;5021563;28;20029;-80
2022/03/15 01:52:30;;;;;;;45.53;25.33;;;;;;;2.95;100.00;101357.53;5021624;28;20109;-80
2022/03/15 01:54:55;;;;;;;48.65;25.95;;;;;;;2.90;100.00;101344.28;5003151;28;20060;-80
2022/03/15 01:57:21;;;;;;;47.95;26.52;;;;;;;2.90;100.00;101349.53;5021120;28;20112;-79
2022/03/15 01:59:46;;;;;;;47.75;26.88;;;;;;;2.89;100.00;101346.00;5002943;28;20033;-80
2022/03/15 02:02:12;;;;;;;46.78;24.98;;;;;;;2.87;100.00;101352.13;5020629;28;20438;-79
2022/03/15 02:04:37;;;;;;;50.17;26.60;;;;;;;2.86;100.00;101337.16;5003134;28;20021;-80
2022/03/15 02:07:12;;;;;;;47.42;26.23;;;;;;;2.76;100.00;101329.06;5019907;28;20029;-80
2022/03/15 02:09:38;;;;;;;51.63;26.48;;;;;;;2.78;100.00;101332.59;5002445;28;20079;-80
2022/03/15 02:12:04;;;;;;;54.80;28.42;;;;;;;2.80;100.00;101332.66;5020514;28;20426;-79
2022/03/15 02:14:29;;;;;;;56.42;27.83;;;;;;;2.84;100.00;101329.19;5020513;28;20026;-79
2022/03/15 02:16:55;;;;;;;48.47;25.70;;;;;;;2.87;100.00;101325.75;5019662;28;20036;-80
2022/03/15 02:19:21;;;;;;;48.17;25.17;;;;;;;2.86;100.00;101323.97;5002351;28;20022;-79
2022/03/15 02:21:47;;;;;;;46.13;25.00;;;;;;;2.83;100.00;101329.19;5002271;28;20026;-79
2022/03/15 02:24:13;;;;;;;49.72;25.50;;;;;;;2.84;100.00;101321.28;5020727;28;20030;-79
2022/03/15 02:26:39;;;;;;;47.25;25.90;;;;;;;2.82;100.00;101319.47;5024079;28;20378;-79
2022/03/15 02:29:04;;;;;;;45.30;25.48;;;;;;;2.81;100.00;101323.00;5007063;28;20030;-80
2022/03/15 02:31:41;;;;;;;45.95;25.90;;;;;;;2.82;100.00;101320.38;5012715;23;20026;-82
2022/03/15 02:34:10;;;;;;;50.22;26.00;;;;;;;2.87;100.00;101315.19;5006488;28;20113;-82
2022/03/15 02:36:38;;;;;;;51.05;26.02;;;;;;;2.90;100.00;101312.59;5038710;28;20025;-82
2022/03/15 02:39:07;;;;;;;50.45;25.02;;;;;;;2.94;100.00;101313.56;5046979;28;20116;-82
2022/03/15 02:41:35;;;;;;;45.15;24.20;;;;;;;2.98;100.00;101304.84;5048632;28;20093;-82
2022/03/15 02:44:00;;;;;;;50.85;26.10;;;;;;;3.00;100.00;101316.28;5030452;28;20371;-83
2022/03/15 02:46:41;;;;;;;48.35;25.33;;;;;;;2.98;100.00;101310.09;5047334;28;20021;-82
2022/03/15 02:49:12;;;;;;;45.92;23.17;;;;;;;2.96;100.00;101296.91;5048166;28;20056;-83
2022/03/15 02:51:47;;;;;;;42.13;22.25;;;;;;;3.03;100.00;101302.28;5030466;28;20021;-82
2022/03/15 02:54:13;;;;;;;42.90;21.55;;;;;;;3.01;100.00;101295.25;5048282;28;20025;-82
2022/03/15 02:56:46;;;;;;;39.20;20.45;;;;;;;3.04;100.00;101286.44;5046911;28;20018;-83
2022/03/15 02:59:19;;;;;;;43.85;20.23;;;;;;;3.01;100.00;101289.97;5021881;28;20085;-82
2022/03/15 03:01:52;;;;;;;37.53;18.98;;;;;;;3.04;100.00;101289.09;5022171;28;20029;-82
2022/03/15 03:04:32;;;;;;;39.20;20.27;;;;;;;3.07;100.00;101293.53;5023379;28;20457;-82
2022/03/15 03:07:09;;;;;;;43.38;19.70;;;;;;;3.07;100.00;101293.53;5041897;28;20017;-82
2022/03/15 03:09:34;;;;;;;40.35;18.77;;;;;;;3.08;100.00;101292.69;5024091;28;20391;-82
2022/03/15 03:12:09;;;;;;;40.30;20.52;;;;;;;3.13;100.00;101288.38;5044136;28;20033;-82
2022/03/15 03:14:46;;;;;;;38.47;18.50;;;;;;;3.16;100.00;101288.44;5042081;28;20040;-82
2022/03/15 03:17:15;;;;;;;36.28;19.80;;;;;;;3.14;100.00;101295.44;5026149;28;20116;-82
2022/03/15 03:19:48;;;;;;;36.40;18.38;;;;;;;3.14;100.00;101298.09;5045929;28;20025;-82
2022/03/15 03:22:19;;;;;;;47.38;19.50;;;;;;;3.11;100.00;101301.56;5028483;28;20055;-82
2022/03/15 03:24:51;;;;;;;40.20;18.27;;;;;;;3.11;100.00;101300.66;5028958;28;20029;-82
2022/03/15 03:27:23;;;;;;;37.42;18.23;;;;;;;3.12;100.00;101302.41;5046137;28;20041;-82
2022/03/15 03:29:49;;;;;;;30.50;17.58;;;;;;;3.10;100.00;101297.13;5028428;28;20474;-82
2022/03/15 03:32:38;;;;;;;36.55;17.88;;;;;;;3.12;100.00;101303.31;5043344;28;20044;-83
2022/03/15 03:35:06;;;;;;;35.60;18.20;;;;;;;3.12;100.00;101310.34;5037853;28;20029;-81
2022/03/15 03:37:43;;;;;;;33.25;16.95;;;;;;;3.11;100.00;101316.50;5038841;28;20025;-81
2022/03/15 03:40:11;;;;;;;34.25;17.83;;;;;;;3.12;100.00;101318.25;5022481;28;20021;-83
2022/03/15 03:42:37;;;;;;;38.15;19.08;;;;;;;3.08;100.00;101316.44;5023095;28;20029;-83
2022/03/15 03:45:08;;;;;;;32.40;18.48;;;;;;;3.05;100.00;101319.00;5041474;28;20112;-82
2022/03/15 03:47:34;;;;;;;38.03;18.73;;;;;;;3.01;100.00;101310.19;5041743;28;20040;-82
2022/03/15 03:50:11;;;;;;;34.80;18.17;;;;;;;3.01;100.00;101304.91;5024943;28;20021;-81
2022/03/15 03:52:41;;;;;;;40.50;17.90;;;;;;;2.99;100.00;101289.00;5023791;28;20032;-82
2022/03/15 03:55:10;;;;;;;33.75;19.10;;;;;;;3.00;100.00;101287.28;5007731;28;20068;-82
2022/03/15 03:57:39;;;;;;;40.63;18.35;;;;;;;2.96;100.00;101296.91;5023676;28;20038;-81
2022/03/15 04:00:09;;;;;;;37.20;20.38;;;;;;;2.95;100.00;101295.13;5024294;28;20026;-84
2022/03/15 04:02:46;;;;;;;36.13;19.35;;;;;;;2.89;100.00;101289.72;5043885;28;20025;-82
2022/03/15 04:05:15;;;;;;;34.70;19.13;;;;;;;2.88;100.00;101293.22;5026713;28;20018;-82
2022/03/15 04:07:41;;;;;;;36.25;19.65;;;;;;;2.85;100.00;101287.88;5046336;28;20036;-82
2022/03/15 04:10:11;;;;;;;38.35;21.30;;;;;;;2.73;100.00;101289.44;5023090;28;20025;-81
2022/03/15 04:12:55;;;;;;;37.30;20.15;;;;;;;2.68;100.00;101283.22;5037843;28;20038;-82
2022/03/15 04:15:34;;;;;;;39.58;20.45;;;;;;;2.69;100.00;101287.59;5028503;28;20021;-82
2022/03/15 04:18:03;;;;;;;37.00;19.70;;;;;;;2.66;100.00;101282.25;5030859;28;20064;-82
2022/03/15 04:20:35;;;;;;;36.70;19.95;;;;;;;2.65;100.00;101285.78;5049174;28;20022;-82
2022/03/15 04:23:12;;;;;;;36.80;20.65;;;;;;;2.60;100.00;101283.06;5030273;28;20017;-86
2022/03/15 04:29:04;;;;;;;36.88;21.17;;;;;;;2.50;100.00;101292.50;4986700;28;20129;-86
2022/03/15 04:31:38;;;;;;;42.83;23.48;;;;;;;2.43;100.00;101291.50;5031091;28;20120;-85
2022/03/15 04:34:30;;;;;;;43.05;22.17;;;;;;;2.42;100.00;101288.84;5049163;28;20045;-85
2022/03/15 04:37:01;;;;;;;42.63;20.88;;;;;;;2.38;100.00;101293.16;5000938;28;20556;-85
2022/03/15 04:39:37;;;;;;;41.03;22.88;;;;;;;2.39;100.00;101284.41;5032839;28;20025;-84
2022/03/15 04:42:09;;;;;;;38.45;21.38;;;;;;;2.36;100.00;101283.44;5051680;28;20033;-84
2022/03/15 04:44:37;;;;;;;37.95;22.10;;;;;;;2.33;100.00;101287.81;5045972;28;20028;-83
2022/03/15 04:47:08;;;;;;;40.75;22.98;;;;;;;2.28;100.00;101286.81;5019652;28;20171;-81
2022/03/15 04:49:34;;;;;;;37.90;21.65;;;;;;;2.24;100.00;101285.00;5039272;28;20033;-82
2022/03/15 04:52:01;;;;;;;37.70;22.35;;;;;;;2.22;100.00;101276.13;5041191;28;20032;-81
2022/03/15 04:54:28;;;;;;;35.15;20.85;;;;;;;2.18;100.00;101274.31;5041302;28;20025;-82
2022/03/15 04:56:53;;;;;;;35.70;21.77;;;;;;;2.14;100.00;101272.47;5024047;28;20021;-80
2022/03/15 04:59:19;;;;;;;37.42;22.15;;;;;;;2.15;100.00;101282.16;5043133;28;20079;-81
2022/03/15 05:01:46;;;;;;;39.05;21.75;;;;;;;2.02;100.00;101279.25;5043402;28;20085;-81
2022/03/15 05:04:12;;;;;;;41.17;22.90;;;;;;;1.95;100.00;101274.72;5046189;28;20029;-82
2022/03/15 05:06:43;;;;;;;38.20;21.98;;;;;;;1.96;100.00;101276.50;5027733;28;20025;-81
2022/03/15 05:09:08;;;;;;;39.55;21.55;;;;;;;1.93;100.00;101284.34;5045996;28;20033;-82
2022/03/15 05:11:36;;;;;;;37.67;21.92;;;;;;;1.93;100.00;101273.78;5046291;28;20044;-81
2022/03/15 05:14:01;;;;;;;39.55;22.88;;;;;;;1.92;100.00;101272.00;5027335;28;20060;-81
2022/03/15 05:16:30;;;;;;;40.67;22.00;;;;;;;1.87;100.00;101275.44;5026899;28;20025;-81
2022/03/15 05:18:56;;;;;;;37.95;21.65;;;;;;;1.86;100.00;101276.28;5027156;28;20026;-82
2022/03/15 05:21:25;;;;;;;37.42;22.25;;;;;;;1.83;100.00;101278.84;5045514;28;20459;-81
2022/03/15 05:23:54;;;;;;;41.35;22.40;;;;;;;1.87;100.00;101285.06;5039383;28;20390;-81
2022/03/15 05:26:20;;;;;;;41.10;22.05;;;;;;;1.86;100.00;101284.19;5040418;28;20150;-81
2022/03/15 05:28:49;;;;;;;43.30;23.33;;;;;;;1.84;100.00;101280.63;5023037;28;20037;-81
2022/03/15 05:31:15;;;;;;;36.88;21.73;;;;;;;1.88;100.00;101287.72;5026575;28;20056;-81
2022/03/15 05:33:41;;;;;;;36.88;21.35;;;;;;;1.86;100.00;101289.44;5047433;28;20052;-82
2022/03/15 05:36:06;;;;;;;37.95;21.10;;;;;;;1.89;100.00;101286.88;5046164;28;20025;-81
2022/03/15 05:38:31;;;;;;;40.50;21.60;;;;;;;1.95;100.00;101288.78;5029490;28;20478;-80
2022/03/15 05:40:57;;;;;;;39.67;22.30;;;;;;;1.95;100.00;101294.03;5043282;28;20083;-79
2022/03/15 05:43:22;;;;;;;41.28;22.73;;;;;;;2.00;100.00;101296.78;5024056;28;20018;-81
2022/03/15 05:45:48;;;;;;;39.50;22.23;;;;;;;1.93;100.00;101294.88;5037656;28;20022;-81
2022/03/15 05:48:13;;;;;;;46.08;23.55;;;;;;;1.93;100.00;101292.22;5021252;28;20403;-81
2022/03/15 05:50:39;;;;;;;46.90;24.77;;;;;;;1.88;100.00;101287.72;5022990;28;20021;-81
2022/03/15 05:53:05;;;;;;;46.85;24.27;;;;;;;1.90;100.00;101290.41;5021659;28;20033;-82
2022/03/15 05:55:34;;;;;;;45.67;25.02;;;;;;;1.91;100.00;101291.31;5022263;28;20018;-81
2022/03/15 05:58:00;;;;;;;46.65;24.83;;;;;;;1.91;100.00;101297.44;5043816;28;20029;-80
2022/03/15 06:00:26;;;;;;;47.08;24.73;;;;;;;1.92;100.00;101290.44;5040712;28;20116;-80
2022/03/15 06:02:52;;;;;;;49.70;25.42;;;;;;;1.91;100.00;101291.31;5024862;28;20065;-80
2022/03/15 06:05:17;;;;;;;49.67;26.17;;;;;;;1.88;100.00;101287.72;5023695;28;20426;-82
2022/03/15 06:07:47;;;;;;;47.08;24.15;;;;;;;1.80;100.00;101286.69;5042938;28;20033;-80
2022/03/15 06:10:13;;;;;;;51.22;25.00;;;;;;;1.74;100.00;101283.91;5042995;28;20032;-83
2022/03/15 06:12:44;;;;;;;51.00;24.35;;;;;;;1.73;100.00;101290.00;5023202;28;20085;-83
2022/03/15 06:15:10;;;;;;;47.30;24.83;;;;;;;1.80;100.00;101283.16;5021463;28;20017;-83
2022/03/15 06:18:09;;;;;;;48.42;24.30;;;;;;;1.74;100.00;101276.00;5041372;28;20022;-81
2022/03/15 06:20:42;;;;;;;45.92;23.95;;;;;;;1.81;100.00;101270.03;5049905;28;20026;-83
2022/03/15 06:23:17;;;;;;;49.38;25.67;;;;;;;1.85;100.00;101276.25;5030272;28;20395;-83
2022/03/15 06:25:45;;;;;;;53.47;26.10;;;;;;;1.84;100.00;101269.19;5028226;28;20045;-84
2022/03/15 06:28:13;;;;;;;52.35;26.40;;;;;;;1.88;100.00;101269.28;5019808;28;20490;-83
2022/03/15 06:33:42;;;;;;;52.55;24.58;;;;;;;1.95;100.00;101272.06;5034270;28;20026;-83
2022/03/15 06:36:11;;;;;;;56.75;25.88;;;;;;;2.01;100.00;101272.22;5030032;23;20141;-81
2022/03/15 06:38:38;;;;;;;49.17;24.73;;;;;;;2.03;100.00;101272.25;5031798;28;20414;-79
2022/03/15 06:41:04;;;;;;;46.17;24.65;;;;;;;2.05;100.00;101267.88;5048443;28;20029;-81
2022/03/15 06:43:29;;;;;;;48.08;24.90;;;;;;;2.03;100.00;101272.25;5030808;28;20029;-79
2022/03/15 06:45:54;;;;;;;52.92;24.95;;;;;;;2.09;100.00;101270.63;5032264;28;20117;-81
2022/03/15 06:48:19;;;;;;;52.03;25.52;;;;;;;2.11;100.00;101266.25;5050958;28;20033;-81
2022/03/15 06:50:45;;;;;;;48.00;25.00;;;;;;;2.14;100.00;101272.47;5033713;28;20026;-80
2022/03/15 06:53:10;;;;;;;49.05;25.02;;;;;;;2.17;100.00;101267.25;5050388;28;20032;-80
2022/03/15 06:55:35;;;;;;;51.00;24.23;;;;;;;2.18;100.00;101275.22;5050056;28;20105;-80
2022/03/15 06:58:01;;;;;;;47.60;25.40;;;;;;;2.19;100.00;101276.09;5050587;28;20033;-81
2022/03/15 07:00:26;;;;;;;50.63;26.02;;;;;;;2.26;100.00;101275.38;5051862;28;20434;-80
2022/03/15 07:02:52;;;;;;;50.38;24.77;;;;;;;2.29;100.00;101272.78;5031413;28;20022;-79
2022/03/15 07:05:17;;;;;;;47.22;23.98;;;;;;;2.30;100.00;101269.28;5050601;28;20029;-80
2022/03/15 07:07:43;;;;;;;46.25;24.52;;;;;;;2.32;100.00;101262.28;5032648;28;20036;-80
2022/03/15 07:10:10;;;;;;;45.47;24.05;;;;;;;2.38;100.00;101258.00;5051679;28;20022;-80
2022/03/15 07:12:37;;;;;;;47.08;23.35;;;;;;;2.40;100.00;101249.25;5054447;28;20032;-80
2022/03/15 07:15:04;;;;;;;47.45;24.33;;;;;;;2.47;100.00;101257.31;5037390;28;20032;-81
2022/03/15 07:17:30;;;;;;;44.22;23.38;;;;;;;2.51;100.00;101259.13;5034864;28;20045;-81
2022/03/15 07:19:57;;;;;;;43.50;22.05;;;;;;;2.59;100.00;101251.38;5052249;28;20052;-81
2022/03/15 07:22:24;;;;;;;45.83;23.13;;;;;;;2.66;100.00;101259.41;5027847;28;20021;-79
2022/03/15 07:24:49;;;;;;;44.28;21.77;;;;;;;2.73;100.00;101251.63;5055305;28;20458;-81
2022/03/15 07:27:15;;;;;;;46.58;22.00;;;;;;;2.82;100.00;101250.91;5055213;28;20532;-80
2022/03/15 07:29:40;;;;;;;41.42;21.50;;;;;;;2.88;100.00;101251.00;5037133;28;20036;-82
2022/03/15 07:32:06;;;;;;;44.67;22.95;;;;;;;2.97;100.00;101243.25;5037956;28;20032;-81
2022/03/15 07:34:31;;;;;;;42.25;21.73;;;;;;;2.97;100.00;101245.00;5054405;28;20032;-80
2022/03/15 07:36:56;;;;;;;46.97;23.15;;;;;;;3.00;100.00;101238.03;5054083;28;20025;-81
2022/03/15 07:39:22;;;;;;;41.97;22.35;;;;;;;3.06;100.00;101244.28;5038386;28;20040;-81
2022/03/15 07:41:47;;;;;;;45.00;22.15;;;;;;;3.00;100.00;101243.31;5055299;28;20057;-81
2022/03/15 07:44:13;;;;;;;41.05;22.17;;;;;;;3.07;100.00;101246.03;5055287;28;20182;-80
2022/03/15 07:46:40;;;;;;;44.53;23.27;;;;;;;3.07;100.00;101241.66;5054738;28;20021;-81
2022/03/15 07:49:05;;;;;;;45.45;23.40;;;;;;;3.18;100.00;101233.91;5036949;28;20092;-81
2022/03/15 07:51:31;;;;;;;43.92;23.92;;;;;;;3.29;100.00;101239.38;5037940;28;20029;-81
2022/03/15 07:53:56;;;;;;;46.60;24.58;;;;;;;3.33;100.00;101242.94;5035761;28;20021;-81
2022/03/15 07:56:22;;;;;;;44.72;24.02;;;;;;;3.36;100.00;101237.69;5034474;28;20021;-82
2022/03/15 07:58:48;;;;;;;48.25;25.20;;;;;;;3.39;100.00;101243.03;5055449;28;20025;-82
2022/03/15 08:01:13;;;;;;;42.95;23.00;;;;;;;3.45;100.00;101232.56;5037925;28;20025;-82
2022/03/15 08:03:38;;;;;;;38.33;22.45;;;;;;;3.39;100.00;101234.22;5036288;28;20054;-82
2022/03/15 08:06:03;;;;;;;47.28;24.13;;;;;;;3.49;100.00;101227.31;5037931;28;20472;-82
2022/03/15 08:08:29;;;;;;;44.08;23.42;;;;;;;3.54;100.00;101231.81;5054603;28;20030;-82
2022/03/15 08:10:54;;;;;;;44.00;23.05;;;;;;;3.55;100.00;101232.72;5055405;28;20367;-82
2022/03/15 08:13:20;;;;;;;45.13;25.48;;;;;;;3.57;100.00;101237.16;5055088;28;20040;-81
2022/03/15 08:15:45;;;;;;;46.08;26.05;;;;;;;3.61;100.00;101238.06;5055677;28;20029;-82
2022/03/15 08:18:11;;;;;;;44.08;25.23;;;;;;;3.61;100.00;101237.19;5038018;28;20093;-82
2022/03/15 08:20:41;;;;;;;44.97;25.75;;;;;;;3.72;100.00;101234.69;5055589;28;20021;-82
2022/03/15 08:23:07;;;;;;;43.10;24.17;;;;;;;3.64;100.00;101238.09;5053774;28;20032;-82
2022/03/15 08:25:33;;;;;;;44.15;24.75;;;;;;;3.76;100.00;101237.38;5055481;28;20018;-82
2022/03/15 08:28:00;;;;;;;47.47;25.50;;;;;;;3.83;100.00;101233.09;5055043;28;20089;-82
2022/03/15 08:30:26;;;;;;;46.17;25.88;;;;;;;3.96;100.00;101227.97;5037946;28;20108;-82
2022/03/15 08:32:52;;;;;;;43.40;24.92;;;;;;;3.97;100.00;101221.81;5037025;28;20005;-82
2022/03/15 08:35:17;;;;;;;43.63;24.17;;;;;;;4.04;100.00;101214.84;5055311;28;20021;-82
2022/03/15 08:37:42;;;;;;;42.00;24.23;;;;;;;4.07;100.00;101209.59;5037504;28;20433;-82
2022/03/15 08:40:09;;;;;;;47.13;24.35;;;;;;;4.05;100.00;101214.84;5054769;28;20025;-80
2022/03/15 08:42:34;;;;;;;43.83;25.00;;;;;;;4.10;100.00;101210.50;5053093;28;20042;-80
2022/03/15 08:45:00;;;;;;;40.78;23.80;;;;;;;4.07;100.00;101207.81;5054128;28;20029;-80
2022/03/15 08:47:25;;;;;;;44.75;24.20;;;;;;;4.22;100.00;101208.88;5053722;28;20434;-80
2022/03/15 08:49:50;;;;;;;42.38;24.17;;;;;;;4.29;100.00;101207.19;5053443;28;20034;-81
2022/03/15 08:52:16;;;;;;;42.75;24.52;;;;;;;4.36;100.00;101201.97;5054082;28;20048;-80
2022/03/15 08:54:41;;;;;;;43.97;23.90;;;;;;;4.32;100.00;101196.66;5035085;28;20029;-81
2022/03/15 08:57:06;;;;;;;42.00;23.42;;;;;;;4.39;100.00;101194.94;5054132;28;20386;-80
2022/03/15 08:59:32;;;;;;;44.15;23.42;;;;;;;4.44;100.00;101193.25;5036537;28;20028;-81
2022/03/15 09:01:57;;;;;;;39.10;22.80;;;;;;;4.57;100.00;101184.56;5053972;28;20044;-80
2022/03/15 09:04:25;;;;;;;45.20;23.80;;;;;;;4.57;100.00;101184.56;5053912;28;20552;-81
2022/03/15 09:06:50;;;;;;;38.08;22.90;;;;;;;4.65;100.00;101192.56;5053239;28;20108;-81
2022/03/15 09:09:21;;;;;;;41.60;22.85;;;;;;;4.64;100.00;101188.13;5054639;28;20029;-80
2022/03/15 09:11:46;;;;;;;39.45;22.77;;;;;;;4.81;100.00;101184.78;5033448;28;20112;-81
2022/03/15 09:14:13;;;;;;;38.42;21.20;;;;;;;4.89;100.00;101185.72;5033807;28;20017;-81
2022/03/15 09:16:39;;;;;;;37.30;22.38;;;;;;;4.92;100.00;101190.16;5054188;28;20025;-80
2022/03/15 09:19:05;;;;;;;35.15;22.30;;;;;;;4.97;100.00;101183.13;5035076;28;20029;-80
2022/03/15 09:21:30;;;;;;;39.00;21.13;;;;;;;4.99;100.00;101186.69;5036484;28;20027;-81
2022/03/15 09:23:57;;;;;;;35.17;20.88;;;;;;;5.06;100.00;101186.72;5034968;28;20034;-80
2022/03/15 09:26:24;;;;;;;38.50;21.65;;;;;;;5.15;100.00;101178.84;5035912;28;20022;-81
2022/03/15 09:28:50;;;;;;;39.78;22.88;;;;;;;5.16;100.00;101171.78;5035881;28;20048;-81
2022/03/15 09:31:16;;;;;;;36.03;21.10;;;;;;;5.16;100.00;101163.84;5054369;28;20026;-80
2022/03/15 09:33:43;;;;;;;39.20;21.23;;;;;;;5.23;100.00;101163.03;5037146;28;20037;-81
2022/03/15 09:36:09;;;;;;;37.53;21.02;;;;;;;5.32;100.00;101167.47;5053698;28;20068;-80
2022/03/15 09:38:34;;;;;;;39.17;20.95;;;;;;;5.37;100.00;101157.78;5036266;28;20063;-81
2022/03/15 09:41:03;;;;;;;39.28;20.25;;;;;;;5.42;100.00;101158.69;5036123;28;20005;-81
2022/03/15 09:43:34;;;;;;;34.10;19.80;;;;;;;5.42;100.00;101158.69;5036104;28;20022;-81
2022/03/15 09:46:02;;;;;;;38.97;21.13;;;;;;;5.43;100.00;101160.50;5036850;28;20029;-81
2022/03/15 09:48:29;;;;;;;35.50;20.65;;;;;;;5.51;100.00;101160.53;5033927;28;20037;-81
2022/03/15 09:50:54;;;;;;;36.22;20.00;;;;;;;5.49;100.00;101154.31;5049428;28;20055;-81
2022/03/15 09:53:20;;;;;;;36.72;20.83;;;;;;;5.60;100.00;101162.31;5051946;28;20029;-81
2022/03/15 09:55:46;;;;;;;39.38;21.65;;;;;;;5.70;100.00;101153.53;5053119;28;20021;-81
2022/03/15 09:58:19;;;;;;;36.20;20.75;;;;;;;5.81;100.00;101155.34;5052762;28;20048;-81
2022/03/15 10:00:45;;;;;;;34.23;20.07;;;;;;;5.84;100.00;101150.06;5053272;28;20085;-81
2022/03/15 10:03:13;;;;;;;35.28;19.70;;;;;;;5.90;100.00;101151.88;5034627;28;20265;-81
2022/03/15 10:05:39;;;;;;;35.70;20.02;;;;;;;6.07;100.00;101151.94;5053930;28;20081;-80
2022/03/15 10:08:05;;;;;;;35.53;20.13;;;;;;;6.08;100.00;101145.72;5052161;28;20092;-79
2022/03/15 10:10:30;;;;;;;36.55;20.10;;;;;;;6.11;100.00;101139.56;5034660;28;20565;-80
2022/03/15 10:12:55;;;;;;;31.95;18.92;;;;;;;6.23;100.00;101142.25;5035074;28;20021;-81
2022/03/15 10:15:24;;;;;;;35.35;20.77;;;;;;;6.30;100.00;101135.19;5035938;28;20052;-81
2022/03/15 10:18:04;;;;;;;36.83;20.40;;;;;;;6.41;100.00;101131.66;5036571;28;20013;-81
2022/03/15 10:20:40;;;;;;;35.40;20.95;;;;;;;6.41;100.00;101135.22;5035111;28;20036;-81
2022/03/15 10:23:06;;;;;;;35.70;20.40;;;;;;;6.54;100.00;101130.78;5035129;28;20017;-81
2022/03/15 10:25:33;;;;;;;32.38;19.10;;;;;;;6.65;100.00;101127.25;5051271;28;20061;-80
2022/03/15 10:28:01;;;;;;;33.78;19.85;;;;;;;6.86;100.00;101121.03;5050266;28;20056;-80
2022/03/15 10:30:28;;;;;;;32.53;19.17;;;;;;;6.91;100.00;101118.38;5052444;28;20025;-81
2022/03/15 10:32:55;;;;;;;30.80;17.73;;;;;;;7.09;100.00;101116.56;5052005;28;20034;-81
2022/03/15 10:35:23;;;;;;;34.65;18.25;;;;;;;7.17;100.00;101114.78;5052593;28;20044;-80
2022/03/15 10:37:50;;;;;;;33.97;18.05;;;;;;;7.28;100.00;101100.59;5034378;28;20045;-81
2022/03/15 10:40:17;;;;;;;28.30;17.45;;;;;;;7.28;100.00;101105.91;5034755;28;20048;-81
2022/03/15 10:42:44;;;;;;;30.38;17.55;;;;;;;7.46;100.00;101095.22;5033759;28;20024;-80
2022/03/15 10:45:20;;;;;;;28.85;18.25;;;;;;;7.64;100.00;101101.34;5053167;28;20077;-81
2022/03/15 10:47:55;;;;;;;28.88;17.23;;;;;;;7.68;100.00;101100.41;5055154;28;20055;-81
2022/03/15 10:50:22;;;;;;;31.52;18.55;;;;;;;7.75;100.00;101089.78;5056975;28;20022;-81
2022/03/15 10:52:48;;;;;;;34.25;16.90;;;;;;;7.89;100.00;101087.91;5040258;28;20020;-80
2022/03/15 10:55:27;;;;;;;30.02;16.70;;;;;;;7.88;100.00;101087.94;5040182;28;20026;-80
2022/03/15 10:58:05;;;;;;;24.92;16.55;;;;;;;7.89;100.00;101082.59;5041570;28;20025;-80
2022/03/15 11:00:36;;;;;;;30.20;18.20;;;;;;;8.07;100.00;101082.47;5042252;28;20026;-80
2022/03/15 11:03:05;;;;;;;28.67;16.90;;;;;;;8.18;100.00;101077.09;5056904;28;20035;-81
2022/03/15 11:05:33;;;;;;;29.88;17.23;;;;;;;8.23;100.00;101077.94;5038375;28;20013;-81
2022/03/15 11:08:07;;;;;;;32.72;17.20;;;;;;;8.26;100.00;101075.25;5057469;28;20035;-80
2022/03/15 11:10:33;;;;;;;26.90;16.92;;;;;;;8.15;100.00;101068.25;5057856;28;20034;-81
2022/03/15 11:13:06;;;;;;;29.15;17.15;;;;;;;8.28;100.00;101068.13;5039601;28;20021;-81
2022/03/15 11:15:36;;;;;;;28.10;16.80;;;;;;;8.32;100.00;101064.59;5040207;28;20013;-81
2022/03/15 11:18:04;;;;;;;25.20;15.20;;;;;;;8.35;100.00;101066.34;5057107;28;20033;-81